createdAt,value
2019-05-11T00:00:26.246Z,9.71
2019-05-11T00:01:26.251Z,9.70
2019-05-11T00:02:26.263Z,9.67
2019-05-11T00:03:26.216Z,9.68
2019-05-11T00:04:26.204Z,9.68
2019-05-11T00:05:26.194Z,9.70
2019-05-11T00:06:26.175Z,9.73
2019-05-11T00:07:26.171Z,9.70
2019-05-11T00:08:26.173Z,9.68
2019-05-11T00:09:26.146Z,9.65
2019-05-11T00:10:26.135Z,9.60
2019-05-11T00:11:26.130Z,9.60
2019-05-11T00:12:26.129Z,9.55
2019-05-11T00:13:26.123Z,9.58
2019-05-11T00:14:26.094Z,9.55
2019-05-11T00:15:26.085Z,9.53
2019-05-11T00:16:26.075Z,9.53
2019-05-11T00:17:26.062Z,9.52
2019-05-11T00:18:26.065Z,9.55
2019-05-11T00:19:26.044Z,9.56
2019-05-11T00:20:26.035Z,9.56
2019-05-11T00:21:26.026Z,9.58
2019-05-11T00:22:26.014Z,9.60
2019-05-11T00:23:26.014Z,9.63
2019-05-11T00:24:29.147Z,9.67
2019-05-11T00:25:25.983Z,9.68
2019-05-11T00:26:25.965Z,9.71
2019-05-11T00:27:25.955Z,9.71
2019-05-11T00:28:25.964Z,9.73
2019-05-11T00:29:25.980Z,9.74
2019-05-11T00:30:25.923Z,9.77
2019-05-11T00:31:25.921Z,9.77
2019-05-11T00:32:25.904Z,9.78
2019-05-11T00:33:25.904Z,9.80
2019-05-11T00:34:25.888Z,9.83
2019-05-11T00:35:25.875Z,9.85
2019-05-11T00:36:25.863Z,9.86
2019-05-11T00:37:25.852Z,9.85
2019-05-11T00:38:25.853Z,9.85
2019-05-11T00:39:25.832Z,9.86
2019-05-11T00:40:25.822Z,9.83
2019-05-11T00:41:25.818Z,9.83
2019-05-11T00:42:25.802Z,9.77
2019-05-11T00:43:25.802Z,9.71
2019-05-11T00:44:25.771Z,9.65
2019-05-11T00:45:25.761Z,9.60
2019-05-11T00:46:25.752Z,9.58
2019-05-11T00:47:25.752Z,9.55
2019-05-11T00:48:25.746Z,9.52
2019-05-11T00:49:25.721Z,9.49
2019-05-11T00:50:38.108Z,9.44
2019-05-11T00:51:26.704Z,9.42
2019-05-11T00:52:25.694Z,9.41
2019-05-11T00:53:25.691Z,9.42
2019-05-11T00:54:25.668Z,9.40
2019-05-11T00:55:25.660Z,9.37
2019-05-11T00:56:25.640Z,9.34
2019-05-11T00:57:25.630Z,9.30
2019-05-11T00:58:25.630Z,9.27
2019-05-11T00:59:25.610Z,9.27
2019-05-11T01:00:25.601Z,9.30
2019-05-11T01:01:25.590Z,9.30
2019-05-11T01:02:25.579Z,9.31
2019-05-11T01:03:34.465Z,9.32
2019-05-11T01:04:25.566Z,9.38
2019-05-11T01:05:25.552Z,9.38
2019-05-11T01:06:25.545Z,9.41
2019-05-11T01:07:25.522Z,9.45
2019-05-11T01:08:25.532Z,9.49
2019-05-11T01:09:25.501Z,9.52
2019-05-11T01:10:41.069Z,9.52
2019-05-11T01:11:26.480Z,9.55
2019-05-11T01:12:25.467Z,9.56
2019-05-11T01:13:25.460Z,9.58
2019-05-11T01:14:25.460Z,9.59
2019-05-11T01:15:25.430Z,9.59
2019-05-11T01:16:25.429Z,9.59
2019-05-11T01:17:25.411Z,9.56
2019-05-11T01:18:25.401Z,9.55
2019-05-11T01:19:25.403Z,9.55
2019-05-11T01:20:25.407Z,9.56
2019-05-11T01:21:25.380Z,9.55
2019-05-11T01:22:25.360Z,9.55
2019-05-11T01:23:25.351Z,9.55
2019-05-11T01:24:25.350Z,9.56
2019-05-11T01:25:25.330Z,9.56
2019-05-11T01:26:25.309Z,9.56
2019-05-11T01:27:25.300Z,9.58
2019-05-11T01:28:25.301Z,9.58
2019-05-11T01:29:25.300Z,9.59
2019-05-11T01:30:25.278Z,9.60
2019-05-11T01:31:25.270Z,9.60
2019-05-11T01:32:25.251Z,9.62
2019-05-11T01:33:25.237Z,9.63
2019-05-11T01:34:25.250Z,9.65
2019-05-11T01:35:25.209Z,9.67
2019-05-11T01:36:25.206Z,9.68
2019-05-11T01:37:25.195Z,9.68
2019-05-11T01:38:25.192Z,9.68
2019-05-11T01:39:25.196Z,9.70
2019-05-11T01:40:25.157Z,9.70
2019-05-11T01:41:25.141Z,9.68
2019-05-11T01:42:25.137Z,9.68
2019-05-11T01:43:25.123Z,9.67
2019-05-11T01:44:25.127Z,9.63
2019-05-11T01:45:25.094Z,9.62
2019-05-11T01:46:25.089Z,9.63
2019-05-11T01:47:25.078Z,9.62
2019-05-11T01:48:25.077Z,9.62
2019-05-11T01:49:25.067Z,9.60
2019-05-11T01:50:25.039Z,9.59
2019-05-11T01:51:25.036Z,9.60
2019-05-11T01:52:25.021Z,9.60
2019-05-11T01:53:24.979Z,9.60
2019-05-11T01:54:24.978Z,9.60
2019-05-11T01:55:24.976Z,9.59
2019-05-11T01:56:24.946Z,9.56
2019-05-11T01:57:24.955Z,9.56
2019-05-11T01:58:24.919Z,9.58
2019-05-11T01:59:25.087Z,9.58
2019-05-11T02:00:24.897Z,9.55
2019-05-11T02:01:24.940Z,9.53
2019-05-11T02:02:24.878Z,9.55
2019-05-11T02:03:24.864Z,9.53
2019-05-11T02:04:24.847Z,9.53
2019-05-11T02:05:24.852Z,9.56
2019-05-11T02:06:24.854Z,9.55
2019-05-11T02:07:24.844Z,9.56
2019-05-11T02:08:24.806Z,9.55
2019-05-11T02:09:24.801Z,9.53
2019-05-11T02:10:24.800Z,9.52
2019-05-11T02:11:24.774Z,9.49
2019-05-11T02:12:24.766Z,9.48
2019-05-11T02:13:24.756Z,9.45
2019-05-11T02:14:24.745Z,9.44
2019-05-11T02:15:24.745Z,9.45
2019-05-11T02:16:24.733Z,9.44
2019-05-11T02:17:24.721Z,9.44
2019-05-11T02:18:24.696Z,9.45
2019-05-11T02:19:24.694Z,9.45
2019-05-11T02:20:24.700Z,9.48
2019-05-11T02:21:24.669Z,9.45
2019-05-11T02:22:24.671Z,9.45
2019-05-11T02:23:24.646Z,9.45
2019-05-11T02:24:24.637Z,9.45
2019-05-11T02:25:24.637Z,9.48
2019-05-11T02:26:24.612Z,9.48
2019-05-11T02:27:24.603Z,9.44
2019-05-11T02:28:24.594Z,9.44
2019-05-11T02:29:24.576Z,9.44
2019-05-11T02:30:24.592Z,9.45
2019-05-11T02:31:24.555Z,9.49
2019-05-11T02:32:24.550Z,9.50
2019-05-11T02:33:24.536Z,9.52
2019-05-11T02:34:24.525Z,9.55
2019-05-11T02:35:24.526Z,9.53
2019-05-11T02:36:24.506Z,9.53
2019-05-11T02:37:24.495Z,9.53
2019-05-11T02:38:24.478Z,9.55
2019-05-11T02:39:24.472Z,9.55
2019-05-11T02:40:24.464Z,9.53
2019-05-11T02:41:35.744Z,9.53
2019-05-11T02:42:25.441Z,9.53
2019-05-11T02:43:24.423Z,9.55
2019-05-11T02:44:24.414Z,9.56
2019-05-11T02:45:24.413Z,9.58
2019-05-11T02:46:24.386Z,9.58
2019-05-11T02:47:24.379Z,9.56
2019-05-11T02:48:24.363Z,9.53
2019-05-11T02:49:28.049Z,9.53
2019-05-11T02:50:24.360Z,9.55
2019-05-11T02:51:24.333Z,9.55
2019-05-11T02:52:24.326Z,9.55
2019-05-11T02:53:24.318Z,9.58
2019-05-11T02:54:24.301Z,9.58
2019-05-11T02:55:24.306Z,9.58
2019-05-11T02:56:24.272Z,9.58
2019-05-11T02:57:24.270Z,9.59
2019-05-11T02:58:24.257Z,9.59
2019-05-11T02:59:24.240Z,9.56
2019-05-11T03:00:24.246Z,9.58
2019-05-11T03:01:24.226Z,9.55
2019-05-11T03:02:24.212Z,9.56
2019-05-11T03:03:24.190Z,9.55
2019-05-11T03:04:24.190Z,9.55
2019-05-11T03:05:24.194Z,9.53
2019-05-11T03:06:24.162Z,9.53
2019-05-11T03:07:24.162Z,9.52
2019-05-11T03:08:24.142Z,9.52
2019-05-11T03:09:24.130Z,9.52
2019-05-11T03:10:24.129Z,9.52
2019-05-11T03:11:24.109Z,9.53
2019-05-11T03:12:24.100Z,9.53
2019-05-11T03:13:24.092Z,9.52
2019-05-11T03:14:24.079Z,9.52
2019-05-11T03:15:24.080Z,9.50
2019-05-11T03:16:24.051Z,9.50
2019-05-11T03:17:24.047Z,9.49
2019-05-11T03:18:24.038Z,9.49
2019-05-11T03:19:24.018Z,9.48
2019-05-11T03:20:24.058Z,9.45
2019-05-11T03:21:24.008Z,9.45
2019-05-11T03:22:23.988Z,9.45
2019-05-11T03:23:23.994Z,9.45
2019-05-11T03:24:24.255Z,9.45
2019-05-11T03:25:23.962Z,9.45
2019-05-11T03:26:23.969Z,9.44
2019-05-11T03:27:23.938Z,9.44
2019-05-11T03:28:23.927Z,9.44
2019-05-11T03:29:23.923Z,9.49
2019-05-11T03:30:23.923Z,9.50
2019-05-11T03:31:23.916Z,9.52
2019-05-11T03:32:23.902Z,9.53
2019-05-11T03:33:23.879Z,9.53
2019-05-11T03:34:23.872Z,9.55
2019-05-11T03:35:23.863Z,9.55
2019-05-11T03:36:23.859Z,9.58
2019-05-11T03:37:23.836Z,9.59
2019-05-11T03:38:23.831Z,9.59
2019-05-11T03:39:23.814Z,9.62
2019-05-11T03:40:23.808Z,9.65
2019-05-11T03:41:23.808Z,9.63
2019-05-11T03:42:23.776Z,9.67
2019-05-11T03:43:23.890Z,9.71
2019-05-11T03:44:23.757Z,9.71
2019-05-11T03:45:23.748Z,9.74
2019-05-11T03:46:23.759Z,9.78
2019-05-11T03:47:23.729Z,9.80
2019-05-11T03:48:23.724Z,9.83
2019-05-11T03:49:23.706Z,9.85
2019-05-11T03:50:23.699Z,9.86
2019-05-11T03:51:23.694Z,9.88
2019-05-11T03:52:23.672Z,9.89
2019-05-11T03:53:23.666Z,9.92
2019-05-11T03:54:23.654Z,9.93
2019-05-11T03:55:23.645Z,9.96
2019-05-11T03:56:23.652Z,9.99
2019-05-11T03:57:23.625Z,9.99
2019-05-11T03:58:26.300Z,10.01
2019-05-11T03:59:23.606Z,10.02
2019-05-11T04:00:23.583Z,10.04
2019-05-11T04:01:23.586Z,10.04
2019-05-11T04:02:23.566Z,10.04
2019-05-11T04:03:23.551Z,10.09
2019-05-11T04:04:23.558Z,10.11
2019-05-11T04:05:23.523Z,10.13
2019-05-11T04:06:23.532Z,10.13
2019-05-11T04:07:23.503Z,10.14
2019-05-11T04:08:23.495Z,10.14
2019-05-11T04:09:23.481Z,10.18
2019-05-11T04:10:25.390Z,10.20
2019-05-11T04:11:23.484Z,10.20
2019-05-11T04:12:34.158Z,10.22
2019-05-11T04:13:24.462Z,10.24
2019-05-11T04:14:23.438Z,10.25
2019-05-11T04:15:23.420Z,10.25
2019-05-11T04:16:23.421Z,10.25
2019-05-11T04:17:23.401Z,10.26
2019-05-11T04:18:23.385Z,10.28
2019-05-11T04:19:23.371Z,10.28
2019-05-11T04:20:23.360Z,10.31
2019-05-11T04:21:23.362Z,10.32
2019-05-11T04:22:23.344Z,10.36
2019-05-11T04:23:23.331Z,10.38
2019-05-11T04:24:23.321Z,10.39
2019-05-11T04:25:23.311Z,10.42
2019-05-11T04:26:23.310Z,10.47
2019-05-11T04:27:23.291Z,10.51
2019-05-11T04:28:23.271Z,10.55
2019-05-11T04:29:23.261Z,10.65
2019-05-11T04:30:23.260Z,10.68
2019-05-11T04:31:23.251Z,10.72
2019-05-11T04:32:23.230Z,10.76
2019-05-11T04:33:23.228Z,10.81
2019-05-11T04:34:23.209Z,10.86
2019-05-11T04:35:23.191Z,10.90
2019-05-11T04:36:23.194Z,10.94
2019-05-11T04:37:23.168Z,10.99
2019-05-11T04:38:23.169Z,11.06
2019-05-11T04:39:23.175Z,11.11
2019-05-11T04:40:23.143Z,11.19
2019-05-11T04:41:23.149Z,11.24
2019-05-11T04:42:23.109Z,11.30
2019-05-11T04:43:23.098Z,11.38
2019-05-11T04:44:23.089Z,11.45
2019-05-11T04:45:23.079Z,11.48
2019-05-11T04:46:23.069Z,11.56
2019-05-11T04:47:23.078Z,11.60
2019-05-11T04:48:23.051Z,11.77
2019-05-11T04:49:23.036Z,11.93
2019-05-11T04:50:23.018Z,12.01
2019-05-11T04:51:23.008Z,12.08
2019-05-11T04:52:23.010Z,12.12
2019-05-11T04:53:22.989Z,12.13
2019-05-11T04:54:22.981Z,12.08
2019-05-11T04:55:22.970Z,12.08
2019-05-11T04:56:22.962Z,12.13
2019-05-11T04:57:22.959Z,12.16
2019-05-11T04:58:22.928Z,12.15
2019-05-11T04:59:22.916Z,12.16
2019-05-11T05:00:22.905Z,12.13
2019-05-11T05:01:22.895Z,12.13
2019-05-11T05:02:22.896Z,12.13
2019-05-11T05:03:39.340Z,12.13
2019-05-11T05:04:23.858Z,12.11
2019-05-11T05:05:22.846Z,12.05
2019-05-11T05:06:24.606Z,12.03
2019-05-11T05:07:22.836Z,11.97
2019-05-11T05:08:26.453Z,11.94
2019-05-11T05:09:23.859Z,11.93
2019-05-11T05:10:22.783Z,11.93
2019-05-11T05:11:22.778Z,11.90
2019-05-11T05:12:22.773Z,11.90
2019-05-11T05:13:23.425Z,11.88
2019-05-11T05:14:23.724Z,11.93
2019-05-11T05:15:22.727Z,11.93
2019-05-11T05:16:22.723Z,11.97
2019-05-11T05:17:22.718Z,11.98
2019-05-11T05:18:22.688Z,11.98
2019-05-11T05:19:22.673Z,12.00
2019-05-11T05:20:22.653Z,12.03
2019-05-11T05:21:22.645Z,12.05
2019-05-11T05:22:22.648Z,12.08
2019-05-11T05:23:22.623Z,12.11
2019-05-11T05:24:22.604Z,12.12
2019-05-11T05:25:22.597Z,12.16
2019-05-11T05:26:22.583Z,12.19
2019-05-11T05:27:22.585Z,12.23
2019-05-11T05:28:22.553Z,12.23
2019-05-11T05:29:22.544Z,12.23
2019-05-11T05:30:22.537Z,12.23
2019-05-11T05:31:22.516Z,12.22
2019-05-11T05:32:22.522Z,12.21
2019-05-11T05:33:22.499Z,12.21
2019-05-11T05:34:22.482Z,12.22
2019-05-11T05:35:22.463Z,12.26
2019-05-11T05:36:22.452Z,12.29
2019-05-11T05:37:22.453Z,12.30
2019-05-11T05:38:22.432Z,12.30
2019-05-11T05:39:22.421Z,12.30
2019-05-11T05:40:22.403Z,12.31
2019-05-11T05:41:22.402Z,12.31
2019-05-11T05:42:22.399Z,12.31
2019-05-11T05:43:27.421Z,12.36
2019-05-11T05:44:23.358Z,12.38
2019-05-11T05:45:22.342Z,12.40
2019-05-11T05:46:22.339Z,12.43
2019-05-11T05:47:22.324Z,12.44
2019-05-11T05:48:22.305Z,12.46
2019-05-11T05:49:22.293Z,12.44
2019-05-11T05:50:22.283Z,12.46
2019-05-11T05:51:22.268Z,12.51
2019-05-11T05:52:22.262Z,12.54
2019-05-11T05:53:22.474Z,12.56
2019-05-11T05:54:22.220Z,12.58
2019-05-11T05:55:22.211Z,12.62
2019-05-11T05:56:22.204Z,12.66
2019-05-11T05:57:22.201Z,12.73
2019-05-11T05:58:22.182Z,12.77
2019-05-11T05:59:22.164Z,12.85
2019-05-11T06:00:22.150Z,12.92
2019-05-11T06:01:22.141Z,12.99
2019-05-11T06:02:22.152Z,13.06
2019-05-11T06:03:22.112Z,13.10
2019-05-11T06:04:22.099Z,13.13
2019-05-11T06:05:22.082Z,13.22
2019-05-11T06:06:22.071Z,13.25
2019-05-11T06:07:22.072Z,13.28
2019-05-11T06:08:22.061Z,13.28
2019-05-11T06:09:22.042Z,13.31
2019-05-11T06:10:22.030Z,13.31
2019-05-11T06:11:22.016Z,13.28
2019-05-11T06:12:22.001Z,13.28
2019-05-11T06:13:22.002Z,13.24
2019-05-11T06:14:21.969Z,13.22
2019-05-11T06:15:21.960Z,13.21
2019-05-11T06:16:21.949Z,13.17
2019-05-11T06:17:21.939Z,13.16
2019-05-11T06:18:21.939Z,13.14
2019-05-11T06:19:21.911Z,13.13
2019-05-11T06:20:21.900Z,13.14
2019-05-11T06:21:21.879Z,13.13
2019-05-11T06:22:21.870Z,13.16
2019-05-11T06:23:21.927Z,13.19
2019-05-11T06:24:21.839Z,13.21
2019-05-11T06:25:21.839Z,13.21
2019-05-11T06:26:21.819Z,13.27
2019-05-11T06:27:21.809Z,13.31
2019-05-11T06:28:21.808Z,13.35
2019-05-11T06:29:22.103Z,13.36
2019-05-11T06:30:21.768Z,13.36
2019-05-11T06:31:21.763Z,13.38
2019-05-11T06:32:21.745Z,13.38
2019-05-11T06:33:21.738Z,13.39
2019-05-11T06:34:21.718Z,13.44
2019-05-11T06:35:22.716Z,13.46
2019-05-11T06:36:21.690Z,13.46
2019-05-11T06:37:21.682Z,13.50
2019-05-11T06:38:21.696Z,13.55
2019-05-11T06:39:21.650Z,13.61
2019-05-11T06:40:21.648Z,13.62
2019-05-11T06:41:21.627Z,13.62
2019-05-11T06:42:21.621Z,13.66
2019-05-11T06:43:21.618Z,13.71
2019-05-11T06:44:21.601Z,13.69
2019-05-11T06:45:21.581Z,13.69
2019-05-11T06:46:21.577Z,13.69
2019-05-11T06:47:21.578Z,13.73
2019-05-11T06:48:21.559Z,13.80
2019-05-11T06:49:21.537Z,13.75
2019-05-11T06:50:21.516Z,13.75
2019-05-11T06:51:21.506Z,13.72
2019-05-11T06:52:21.507Z,13.69
2019-05-11T06:53:21.499Z,13.71
2019-05-11T06:54:21.597Z,13.69
2019-05-11T06:55:21.920Z,13.66
2019-05-11T06:56:21.556Z,13.65
2019-05-11T06:57:21.543Z,13.66
2019-05-11T06:58:22.056Z,13.66
2019-05-11T06:59:21.506Z,13.63
2019-05-11T07:00:21.513Z,13.63
2019-05-11T07:01:22.047Z,13.65
2019-05-11T07:02:21.785Z,13.63
2019-05-11T07:03:21.517Z,13.63
2019-05-11T07:04:22.405Z,13.68
2019-05-11T07:05:21.462Z,13.79
2019-05-11T07:06:25.354Z,13.81
2019-05-11T07:07:22.372Z,13.81
2019-05-11T07:08:21.307Z,13.81
2019-05-11T07:09:21.423Z,13.84
2019-05-11T07:10:21.274Z,13.88
2019-05-11T07:11:21.268Z,13.88
2019-05-11T07:12:21.283Z,13.87
2019-05-11T07:13:21.266Z,13.99
2019-05-11T07:14:21.627Z,14.01
2019-05-11T07:15:21.218Z,14.02
2019-05-11T07:16:21.203Z,14.01
2019-05-11T07:17:21.192Z,14.02
2019-05-11T07:18:21.192Z,14.06
2019-05-11T07:19:21.163Z,14.13
2019-05-11T07:20:21.154Z,14.13
2019-05-11T07:21:21.142Z,14.16
2019-05-11T07:22:21.127Z,14.11
2019-05-11T07:23:21.114Z,14.05
2019-05-11T07:24:21.127Z,14.09
2019-05-11T07:25:21.093Z,14.17
2019-05-11T07:26:21.074Z,14.20
2019-05-11T07:27:21.066Z,14.24
2019-05-11T07:28:21.061Z,14.34
2019-05-11T07:29:21.054Z,14.36
2019-05-11T07:30:21.036Z,14.36
2019-05-11T07:31:21.035Z,14.42
2019-05-11T07:32:25.660Z,14.45
2019-05-11T07:33:21.994Z,14.48
2019-05-11T07:34:21.002Z,14.48
2019-05-11T07:35:20.973Z,14.46
2019-05-11T07:36:20.964Z,14.45
2019-05-11T07:37:24.082Z,14.41
2019-05-11T07:38:20.934Z,14.42
2019-05-11T07:39:22.293Z,14.48
2019-05-11T07:40:20.916Z,14.53
2019-05-11T07:41:20.906Z,14.54
2019-05-11T07:42:20.893Z,14.61
2019-05-11T07:43:20.875Z,14.67
2019-05-11T07:44:34.988Z,14.71
2019-05-11T07:45:21.852Z,14.64
2019-05-11T07:46:20.848Z,14.64
2019-05-11T07:47:20.831Z,14.69
2019-05-11T07:48:20.826Z,14.72
2019-05-11T07:49:23.425Z,14.74
2019-05-11T07:50:20.793Z,14.74
2019-05-11T07:51:20.782Z,14.74
2019-05-11T07:52:20.771Z,14.83
2019-05-11T07:53:20.762Z,14.74
2019-05-11T07:54:20.762Z,14.74
2019-05-11T07:55:20.748Z,14.74
2019-05-11T07:56:20.733Z,14.66
2019-05-11T07:57:20.723Z,14.57
2019-05-11T07:58:20.702Z,14.57
2019-05-11T07:59:20.761Z,14.59
2019-05-11T08:00:20.682Z,14.66
2019-05-11T08:01:20.683Z,14.69
2019-05-11T08:02:20.652Z,14.67
2019-05-11T08:03:20.642Z,14.69
2019-05-11T08:04:20.663Z,14.75
2019-05-11T08:05:20.628Z,14.78
2019-05-11T08:06:20.615Z,14.79
2019-05-11T08:07:20.606Z,14.80
2019-05-11T08:08:20.598Z,14.71
2019-05-11T08:09:20.591Z,14.67
2019-05-11T08:10:20.561Z,14.71
2019-05-11T08:11:20.551Z,14.69
2019-05-11T08:12:20.549Z,14.66
2019-05-11T08:13:20.531Z,14.64
2019-05-11T08:14:20.536Z,14.72
2019-05-11T08:15:20.510Z,14.80
2019-05-11T08:16:20.505Z,14.86
2019-05-11T08:17:20.481Z,14.97
2019-05-11T08:18:20.474Z,15.03
2019-05-11T08:19:20.500Z,15.01
2019-05-11T08:20:20.441Z,15.03
2019-05-11T08:21:20.459Z,15.07
2019-05-11T08:22:22.858Z,15.11
2019-05-11T08:23:20.403Z,15.11
2019-05-11T08:24:20.400Z,15.18
2019-05-11T08:25:20.403Z,15.15
2019-05-11T08:26:20.370Z,15.09
2019-05-11T08:27:20.380Z,15.07
2019-05-11T08:28:20.350Z,15.03
2019-05-11T08:29:20.349Z,14.91
2019-05-11T08:30:20.330Z,14.87
2019-05-11T08:31:20.326Z,14.85
2019-05-11T08:32:20.340Z,14.78
2019-05-11T08:33:20.318Z,14.69
2019-05-11T08:34:20.429Z,14.71
2019-05-11T08:35:20.270Z,14.74
2019-05-11T08:36:20.260Z,14.80
2019-05-11T08:37:20.252Z,14.79
2019-05-11T08:38:20.243Z,14.72
2019-05-11T08:39:20.221Z,14.72
2019-05-11T08:40:20.224Z,14.69
2019-05-11T08:41:20.210Z,14.75
2019-05-11T08:42:20.180Z,14.72
2019-05-11T08:43:20.170Z,14.53
2019-05-11T08:44:20.170Z,14.49
2019-05-11T08:45:24.577Z,14.42
2019-05-11T08:46:20.149Z,14.44
2019-05-11T08:47:20.140Z,14.44
2019-05-11T08:48:20.115Z,14.48
2019-05-11T08:49:20.099Z,14.56
2019-05-11T08:50:20.109Z,14.64
2019-05-11T08:51:20.078Z,14.71
2019-05-11T08:52:20.069Z,14.72
2019-05-11T08:53:20.083Z,14.74
2019-05-11T08:54:20.048Z,14.74
2019-05-11T08:55:20.043Z,14.75
2019-05-11T08:56:20.018Z,14.75
2019-05-11T08:57:20.007Z,14.61
2019-05-11T08:58:20.002Z,14.56
2019-05-11T08:59:20.095Z,14.53
2019-05-11T09:00:19.979Z,14.56
2019-05-11T09:01:19.958Z,14.64
2019-05-11T09:02:19.949Z,14.78
2019-05-11T09:03:19.928Z,14.87
2019-05-11T09:04:19.927Z,14.94
2019-05-11T09:05:19.928Z,14.98
2019-05-11T09:06:19.906Z,15.04
2019-05-11T09:07:19.888Z,15.09
2019-05-11T09:08:19.887Z,15.07
2019-05-11T09:09:19.869Z,15.04
2019-05-11T09:10:19.869Z,15.11
2019-05-11T09:11:19.850Z,15.19
2019-05-11T09:12:19.838Z,15.27
2019-05-11T09:13:19.819Z,15.34
2019-05-11T09:14:19.827Z,15.43
2019-05-11T09:15:32.385Z,15.53
2019-05-11T09:16:20.797Z,15.60
2019-05-11T09:17:19.800Z,15.70
2019-05-11T09:18:20.056Z,15.77
2019-05-11T09:19:19.760Z,15.89
2019-05-11T09:20:19.916Z,15.88
2019-05-11T09:21:19.796Z,15.96
2019-05-11T09:22:19.743Z,16.06
2019-05-11T09:23:33.566Z,16.10
2019-05-11T09:24:21.118Z,16.13
2019-05-11T09:25:19.707Z,16.10
2019-05-11T09:26:19.699Z,15.96
2019-05-11T09:27:19.868Z,15.95
2019-05-11T09:28:19.648Z,15.93
2019-05-11T09:29:19.638Z,15.95
2019-05-11T09:30:19.639Z,15.91
2019-05-11T09:31:19.616Z,15.85
2019-05-11T09:32:19.600Z,15.84
2019-05-11T09:33:20.779Z,15.77
2019-05-11T09:34:20.676Z,15.68
2019-05-11T09:35:19.669Z,15.70
2019-05-11T09:36:20.165Z,15.76
2019-05-11T09:37:19.792Z,15.81
2019-05-11T09:38:19.549Z,15.95
2019-05-11T09:39:20.307Z,16.06
2019-05-11T09:40:19.509Z,16.13
2019-05-11T09:41:20.486Z,16.11
2019-05-11T09:42:19.489Z,16.14
2019-05-11T09:43:19.481Z,16.11
2019-05-11T09:44:19.755Z,16.08
2019-05-11T09:45:19.486Z,16.07
2019-05-11T09:46:19.870Z,15.99
2019-05-11T09:47:19.476Z,15.81
2019-05-11T09:48:19.466Z,15.80
2019-05-11T09:49:19.406Z,15.76
2019-05-11T09:50:19.407Z,15.78
2019-05-11T09:51:20.346Z,15.81
2019-05-11T09:52:19.399Z,15.85
2019-05-11T09:53:20.286Z,15.84
2019-05-11T09:54:19.475Z,15.98
2019-05-11T09:55:19.938Z,16.07
2019-05-11T09:56:20.037Z,16.11
2019-05-11T09:57:19.494Z,16.16
2019-05-11T09:58:20.002Z,16.17
2019-05-11T09:59:19.556Z,16.14
2019-05-11T10:00:19.603Z,16.10
2019-05-11T10:01:20.078Z,16.13
2019-05-11T10:02:21.132Z,16.13
2019-05-11T10:03:19.247Z,16.14
2019-05-11T10:04:19.255Z,16.14
2019-05-11T10:05:19.376Z,16.18
2019-05-11T10:06:19.346Z,16.26
2019-05-11T10:07:19.518Z,16.29
2019-05-11T10:08:19.185Z,16.32
2019-05-11T10:09:19.526Z,16.29
2019-05-11T10:10:19.360Z,16.18
2019-05-11T10:11:19.424Z,15.96
2019-05-11T10:12:19.445Z,15.86
2019-05-11T10:13:19.155Z,15.89
2019-05-11T10:14:19.114Z,15.91
2019-05-11T10:15:19.398Z,15.80
2019-05-11T10:16:19.166Z,15.78
2019-05-11T10:17:19.127Z,15.76
2019-05-11T10:18:19.286Z,15.73
2019-05-11T10:19:19.226Z,15.71
2019-05-11T10:20:19.045Z,15.64
2019-05-11T10:21:19.145Z,15.64
2019-05-11T10:22:19.033Z,15.59
2019-05-11T10:23:19.023Z,15.64
2019-05-11T10:24:20.114Z,15.60
2019-05-11T10:25:19.377Z,15.53
2019-05-11T10:26:20.015Z,15.46
2019-05-11T10:27:19.496Z,15.46
2019-05-11T10:28:19.008Z,15.46
2019-05-11T10:29:18.944Z,15.44
2019-05-11T10:30:18.941Z,15.53
2019-05-11T10:31:19.054Z,15.52
2019-05-11T10:32:19.153Z,15.53
2019-05-11T10:33:19.025Z,15.56
2019-05-11T10:34:18.896Z,15.58
2019-05-11T10:35:18.939Z,15.55
2019-05-11T10:36:19.168Z,15.55
2019-05-11T10:37:18.940Z,15.51
2019-05-11T10:38:18.929Z,15.55
2019-05-11T10:39:18.886Z,15.62
2019-05-11T10:40:19.218Z,15.66
2019-05-11T10:41:18.854Z,15.68
2019-05-11T10:42:18.804Z,15.66
2019-05-11T10:43:18.814Z,15.62
2019-05-11T10:44:18.989Z,15.66
2019-05-11T10:45:18.784Z,15.62
2019-05-11T10:46:22.908Z,15.58
2019-05-11T10:47:18.763Z,15.51
2019-05-11T10:48:18.776Z,15.49
2019-05-11T10:49:18.728Z,15.52
2019-05-11T10:50:18.949Z,15.56
2019-05-11T10:51:18.794Z,15.59
2019-05-11T10:52:19.543Z,15.62
2019-05-11T10:53:18.692Z,15.67
2019-05-11T10:54:18.920Z,15.73
2019-05-11T10:55:19.553Z,15.80
2019-05-11T10:56:18.635Z,15.84
2019-05-11T10:57:19.032Z,15.86
2019-05-11T10:58:18.710Z,15.88
2019-05-11T10:59:18.963Z,15.77
2019-05-11T11:00:18.625Z,15.76
2019-05-11T11:01:18.767Z,15.77
2019-05-11T11:02:18.634Z,15.88
2019-05-11T11:03:18.856Z,15.93
2019-05-11T11:04:18.594Z,15.93
2019-05-11T11:05:18.921Z,15.92
2019-05-11T11:06:18.954Z,15.91
2019-05-11T11:07:19.474Z,15.93
2019-05-11T11:08:18.761Z,15.92
2019-05-11T11:09:18.493Z,15.92
2019-05-11T11:10:18.735Z,15.85
2019-05-11T11:11:18.777Z,15.88
2019-05-11T11:12:18.818Z,15.92
2019-05-11T11:13:18.944Z,15.96
2019-05-11T11:14:18.462Z,15.95
2019-05-11T11:15:18.470Z,15.99
2019-05-11T11:16:35.200Z,16.03
2019-05-11T11:17:19.456Z,15.98
2019-05-11T11:18:18.960Z,15.93
2019-05-11T11:19:18.499Z,15.91
2019-05-11T11:20:18.751Z,15.93
2019-05-11T11:21:22.670Z,15.95
2019-05-11T11:22:35.836Z,15.89
2019-05-11T11:23:19.635Z,15.91
2019-05-11T11:24:18.396Z,15.96
2019-05-11T11:25:18.482Z,16.04
2019-05-11T11:26:18.636Z,16.14
2019-05-11T11:27:19.113Z,16.30
2019-05-11T11:28:19.354Z,16.36
2019-05-11T11:29:18.295Z,16.36
2019-05-11T11:30:18.521Z,16.36
2019-05-11T11:31:18.880Z,16.36
2019-05-11T11:32:18.433Z,16.33
2019-05-11T11:33:18.517Z,16.40
2019-05-11T11:34:18.954Z,16.48
2019-05-11T11:35:18.842Z,16.57
2019-05-11T11:36:18.452Z,16.70
2019-05-11T11:37:18.192Z,16.65
2019-05-11T11:38:19.705Z,16.67
2019-05-11T11:39:18.692Z,16.62
2019-05-11T11:40:18.151Z,16.62
2019-05-11T11:41:18.789Z,16.54
2019-05-11T11:42:18.282Z,16.44
2019-05-11T11:43:18.265Z,16.33
2019-05-11T11:44:18.614Z,16.18
2019-05-11T11:45:18.479Z,16.10
2019-05-11T11:46:18.898Z,16.08
2019-05-11T11:47:21.461Z,16.07
2019-05-11T11:48:19.032Z,16.11
2019-05-11T11:49:19.072Z,16.10
2019-05-11T11:50:18.032Z,16.08
2019-05-11T11:51:18.765Z,16.07
2019-05-11T11:52:18.809Z,16.06
2019-05-11T11:53:18.807Z,16.11
2019-05-11T11:54:18.377Z,16.16
2019-05-11T11:55:18.758Z,16.14
2019-05-11T11:56:19.238Z,16.10
2019-05-11T11:57:18.293Z,16.04
2019-05-11T11:58:23.563Z,16.11
2019-05-11T11:59:19.471Z,16.17
2019-05-11T12:00:18.421Z,16.33
2019-05-11T12:01:18.950Z,16.48
2019-05-11T12:02:19.162Z,16.62
2019-05-11T12:03:18.578Z,16.77
2019-05-11T12:04:18.785Z,16.90
2019-05-11T12:05:17.941Z,16.87
2019-05-11T12:06:18.377Z,16.96
2019-05-11T12:07:18.117Z,17.05
2019-05-11T12:08:18.893Z,17.22
2019-05-11T12:09:18.308Z,17.33
2019-05-11T12:10:18.366Z,17.39
2019-05-11T12:11:18.737Z,17.45
2019-05-11T12:12:18.578Z,17.47
2019-05-11T12:13:18.745Z,17.42
2019-05-11T12:14:18.716Z,17.33
2019-05-11T12:15:17.929Z,17.20
2019-05-11T12:16:18.331Z,17.09
2019-05-11T12:17:18.310Z,17.07
2019-05-11T12:18:18.463Z,17.14
2019-05-11T12:19:18.771Z,17.12
2019-05-11T12:20:18.158Z,17.14
2019-05-11T12:21:18.578Z,17.07
2019-05-11T12:22:18.794Z,17.02
2019-05-11T12:23:18.102Z,17.00
2019-05-11T12:24:18.759Z,17.03
2019-05-11T12:25:18.585Z,17.07
2019-05-11T12:26:17.938Z,17.12
2019-05-11T12:27:18.281Z,17.20
2019-05-11T12:28:18.430Z,17.30
2019-05-11T12:29:18.820Z,17.40
2019-05-11T12:30:17.844Z,17.54
2019-05-11T12:31:18.407Z,17.57
2019-05-11T12:32:18.573Z,17.53
2019-05-11T12:33:18.734Z,17.45
2019-05-11T12:34:18.020Z,17.38
2019-05-11T12:35:18.000Z,17.32
2019-05-11T12:36:18.699Z,17.15
2019-05-11T12:37:17.987Z,16.87
2019-05-11T12:38:18.316Z,16.75
2019-05-11T12:39:19.217Z,16.73
2019-05-11T12:40:18.188Z,16.81
2019-05-11T12:41:18.946Z,16.82
2019-05-11T12:42:18.021Z,16.84
2019-05-11T12:43:18.630Z,16.82
2019-05-11T12:44:18.779Z,16.80
2019-05-11T12:45:18.206Z,16.80
2019-05-11T12:46:18.870Z,16.84
2019-05-11T12:47:25.189Z,16.84
2019-05-11T12:48:18.583Z,16.85
2019-05-11T12:49:18.755Z,16.85
2019-05-11T12:50:18.696Z,16.85
2019-05-11T12:51:18.654Z,16.92
2019-05-11T12:52:18.419Z,17.02
2019-05-11T12:53:18.631Z,17.05
2019-05-11T12:54:18.752Z,17.10
2019-05-11T12:55:17.925Z,17.06
2019-05-11T12:56:19.046Z,17.06
2019-05-11T12:57:18.638Z,17.00
2019-05-11T12:58:18.111Z,16.88
2019-05-11T12:59:18.811Z,16.84
2019-05-11T13:00:17.868Z,16.75